Time;durP1;ratioP1;P1;durP2;ratioP2;P2;SDS_P1;SDS_P2;PMS_P1;PMS_P2;Temp;Humidity;BMP_temperature;BMP_pressure;BME280_temperature;BME280_humidity;BME280_pressure;Samples;Min_cycle;Max_cycle;Signal;HPM_P1;HPM_P2
2023/04/17 00:00:24;;;;;;;;;;;8.50;99.90;;;;;;5025285;28;20275;-89
2023/04/17 00:02:51;;;;;;;;;;;8.50;99.90;;;;;;5010443;28;19996;-91
2023/04/17 00:05:21;;;;;;;;;;;8.50;99.90;;;;;;5005006;28;19964;-91
2023/04/17 00:07:48;;;;;;;;;;;8.50;99.90;;;;;;5002437;28;20063;-90
2023/04/17 00:10:16;;;;;;;;;;;8.50;99.90;;;;;;5012643;28;19925;-91
2023/04/17 00:12:43;;;;;;;;;;;8.50;99.90;;;;;;5003277;28;19976;-91
2023/04/17 00:15:10;;;;;;;;;;;8.50;99.90;;;;;;5002330;28;19976;-90
2023/04/17 00:17:37;;;;;;;;;;;8.50;99.90;;;;;;5008064;28;19926;-90
2023/04/17 00:20:06;;;;;;;;;;;8.50;99.90;;;;;;5004896;28;19997;-91
2023/04/17 00:22:33;;;;;;;;;;;8.40;99.90;;;;;;5004358;28;19934;-90
2023/04/17 00:25:00;;;;;;;;;;;8.50;99.90;;;;;;5003166;28;20019;-89
2023/04/17 00:27:28;;;;;;;;;;;8.40;99.90;;;;;;5007047;28;19936;-91
2023/04/17 00:29:55;;;;;;;;;;;8.40;99.90;;;;;;5000941;28;20359;-89
2023/04/17 00:32:22;;;;;;;;;;;8.50;99.90;;;;;;5006808;28;20438;-90
2023/04/17 00:34:50;;;;;;;;;;;8.40;99.90;;;;;;5006000;28;20395;-89
2023/04/17 00:37:18;;;;;;;;;;;8.40;99.90;;;;;;5003942;28;20396;-90
2023/04/17 00:39:45;;;;;;;;;;;8.40;99.90;;;;;;5003352;28;19933;-90
2023/04/17 00:42:12;;;;;;;;;;;8.50;99.90;;;;;;5007222;28;19987;-91
2023/04/17 00:44:40;;;;;;;;;;;8.40;99.90;;;;;;5007333;28;19965;-91
2023/04/17 00:47:07;;;;;;;;;;;8.40;99.90;;;;;;5008481;28;19961;-91
2023/04/17 00:49:34;;;;;;;;;;;8.50;99.90;;;;;;5005858;28;19968;-91
2023/04/17 00:52:01;;;;;;;;;;;8.40;99.90;;;;;;5001320;28;19929;-90
2023/04/17 00:54:30;;;;;;;;;;;8.40;99.90;;;;;;5002830;28;19933;-91
2023/04/17 00:56:57;;;;;;;;;;;8.40;99.90;;;;;;5005986;28;19975;-90
2023/04/17 00:59:27;;;;;;;;;;;8.40;99.90;;;;;;5007895;28;19936;-89
2023/04/17 01:01:55;;;;;;;;;;;8.50;99.90;;;;;;5007532;28;19926;-90
2023/04/17 01:04:22;;;;;;;;;;;8.40;99.90;;;;;;5011788;28;19932;-90
2023/04/17 01:06:49;;;;;;;;;;;8.40;99.90;;;;;;5023213;28;20505;-91
2023/04/17 01:09:16;;;;;;;;;;;8.40;99.90;;;;;;5011043;28;20404;-90
2023/04/17 01:11:43;;;;;;;;;;;8.40;99.90;;;;;;5011589;28;19925;-91
2023/04/17 01:14:10;;;;;;;;;;;8.40;99.90;;;;;;5003749;28;20024;-90
2023/04/17 01:16:38;;;;;;;;;;;8.40;99.90;;;;;;5004947;28;19929;-92
2023/04/17 01:19:07;;;;;;;;;;;8.40;99.90;;;;;;5005175;28;19999;-90
2023/04/17 01:21:34;;;;;;;;;;;8.40;99.90;;;;;;5007520;28;19926;-90
2023/04/17 01:24:04;;;;;;;;;;;8.40;99.90;;;;;;5004184;28;19937;-91
2023/04/17 01:26:31;;;;;;;;;;;8.40;99.90;;;;;;5023365;28;19933;-91
2023/04/17 01:28:59;;;;;;;;;;;8.40;99.90;;;;;;5005261;28;20398;-91
2023/04/17 01:31:27;;;;;;;;;;;8.40;99.90;;;;;;5007144;28;20012;-91
2023/04/17 01:33:54;;;;;;;;;;;8.40;99.90;;;;;;5008660;28;20292;-90
2023/04/17 01:36:21;;;;;;;;;;;8.40;99.90;;;;;;5004687;28;19929;-93
2023/04/17 01:38:48;;;;;;;;;;;8.40;99.90;;;;;;5005875;28;19925;-90
2023/04/17 01:41:20;;;;;;;;;;;8.40;99.90;;;;;;5004183;28;19933;-91
2023/04/17 01:43:47;;;;;;;;;;;8.40;99.90;;;;;;5003394;28;21092;-89
2023/04/17 01:46:14;;;;;;;;;;;8.40;99.90;;;;;;5010298;28;19929;-91
2023/04/17 01:48:40;;;;;;;;;;;8.40;99.90;;;;;;5006835;28;19932;-89
2023/04/17 01:51:07;;;;;;;;;;;8.40;99.90;;;;;;5009950;28;19932;-89
2023/04/17 01:53:35;;;;;;;;;;;8.40;99.90;;;;;;5005146;28;19930;-90
2023/04/17 01:56:01;;;;;;;;;;;8.40;99.90;;;;;;5007879;28;19940;-89
2023/04/17 01:58:31;;;;;;;;;;;8.40;99.90;;;;;;5006398;28;19949;-91
2023/04/17 02:00:57;;;;;;;;;;;8.40;99.90;;;;;;5007862;28;19925;-88
2023/04/17 02:03:24;;;;;;;;;;;8.40;99.90;;;;;;5008533;28;19933;-89
2023/04/17 02:05:52;;;;;;;;;;;8.40;99.90;;;;;;5006866;28;20486;-89
2023/04/17 02:08:19;;;;;;;;;;;8.40;99.90;;;;;;5007711;28;19972;-89
2023/04/17 02:10:46;;;;;;;;;;;8.40;99.90;;;;;;5011456;28;19925;-91
2023/04/17 02:13:13;;;;;;;;;;;8.30;99.90;;;;;;5010214;28;19994;-90
2023/04/17 02:15:42;;;;;;;;;;;8.40;99.90;;;;;;5023123;28;19934;-90
2023/04/17 02:18:09;;;;;;;;;;;8.30;99.90;;;;;;5026299;28;19930;-91
2023/04/17 02:20:37;;;;;;;;;;;8.30;99.90;;;;;;5007381;28;20288;-89
2023/04/17 02:23:04;;;;;;;;;;;8.30;99.90;;;;;;5001833;28;20380;-89
2023/04/17 02:25:33;;;;;;;;;;;8.30;99.90;;;;;;5010280;28;19960;-88
2023/04/17 02:27:59;;;;;;;;;;;8.40;99.90;;;;;;5007839;28;19925;-90
2023/04/17 02:30:27;;;;;;;;;;;8.30;99.90;;;;;;5004469;28;19929;-90
2023/04/17 02:32:57;;;;;;;;;;;8.30;99.90;;;;;;5003349;28;19972;-90
2023/04/17 02:35:25;;;;;;;;;;;8.40;99.90;;;;;;5008786;28;19925;-90
2023/04/17 02:37:53;;;;;;;;;;;8.30;99.90;;;;;;5006590;28;19929;-90
2023/04/17 02:40:22;;;;;;;;;;;8.30;99.90;;;;;;5007118;28;20028;-89
2023/04/17 02:42:53;;;;;;;;;;;8.30;99.90;;;;;;5006837;28;19952;-89
2023/04/17 02:45:20;;;;;;;;;;;8.30;99.90;;;;;;5007886;28;20028;-89
2023/04/17 02:47:47;;;;;;;;;;;8.30;99.90;;;;;;5009166;28;20423;-90
2023/04/17 02:50:16;;;;;;;;;;;8.30;99.90;;;;;;5006584;28;19937;-89
2023/04/17 02:52:56;;;;;;;;;;;8.30;99.90;;;;;;5005640;28;20728;-89
2023/04/17 02:55:23;;;;;;;;;;;8.30;99.90;;;;;;5006725;28;19925;-88
2023/04/17 02:57:50;;;;;;;;;;;8.30;99.90;;;;;;5006184;28;19925;-90
2023/04/17 03:00:17;;;;;;;;;;;8.30;99.90;;;;;;5003537;28;20367;-89
2023/04/17 03:02:45;;;;;;;;;;;8.30;99.90;;;;;;5009329;28;19944;-89
2023/04/17 03:05:13;;;;;;;;;;;8.30;99.90;;;;;;5012686;28;20529;-90
2023/04/17 03:07:42;;;;;;;;;;;8.30;99.90;;;;;;5002941;28;20008;-90
2023/04/17 03:10:09;;;;;;;;;;;8.30;99.90;;;;;;5005550;28;19932;-90
2023/04/17 03:12:36;;;;;;;;;;;8.30;99.90;;;;;;5013090;28;19933;-90
2023/04/17 03:15:03;;;;;;;;;;;8.30;99.90;;;;;;5006550;28;19932;-90
2023/04/17 03:17:30;;;;;;;;;;;8.30;99.90;;;;;;4998861;28;20027;-90
2023/04/17 03:19:57;;;;;;;;;;;8.20;99.90;;;;;;5026573;28;19932;-89
2023/04/17 03:22:24;;;;;;;;;;;8.20;99.90;;;;;;5008951;28;19925;-89
2023/04/17 03:24:52;;;;;;;;;;;8.20;99.90;;;;;;5003937;28;20121;-90
2023/04/17 03:27:23;;;;;;;;;;;8.20;99.90;;;;;;5006336;28;20012;-89
2023/04/17 03:29:52;;;;;;;;;;;8.20;99.90;;;;;;5004990;28;20308;-90
2023/04/17 03:32:24;;;;;;;;;;;8.20;99.90;;;;;;4999782;28;19937;-89
2023/04/17 03:34:51;;;;;;;;;;;8.20;99.90;;;;;;5002766;28;19933;-88
2023/04/17 03:37:21;;;;;;;;;;;8.20;99.90;;;;;;5003580;28;20012;-89
2023/04/17 03:39:48;;;;;;;;;;;8.20;99.90;;;;;;5005212;28;20056;-89
2023/04/17 03:42:26;;;;;;;;;;;8.20;99.90;;;;;;5004521;28;19937;-91
2023/04/17 03:44:54;;;;;;;;;;;8.20;99.90;;;;;;5007702;28;19930;-90
2023/04/17 03:47:21;;;;;;;;;;;8.20;99.90;;;;;;5005291;28;20344;-89
2023/04/17 03:49:47;;;;;;;;;;;8.20;99.90;;;;;;5005812;28;19933;-89
2023/04/17 03:52:15;;;;;;;;;;;8.20;99.90;;;;;;4997671;28;19950;-88
2023/04/17 03:54:45;;;;;;;;;;;8.20;99.90;;;;;;5002903;28;19937;-87
2023/04/17 03:57:13;;;;;;;;;;;8.20;99.90;;;;;;5003823;28;20043;-87
2023/04/17 03:59:41;;;;;;;;;;;8.20;99.90;;;;;;5002496;28;19971;-89
2023/04/17 04:02:08;;;;;;;;;;;8.20;99.90;;;;;;4998690;28;19960;-89
2023/04/17 04:04:36;;;;;;;;;;;8.20;99.90;;;;;;4999855;28;20388;-87
2023/04/17 04:07:09;;;;;;;;;;;8.20;99.90;;;;;;5015148;28;19932;-89
2023/04/17 04:09:36;;;;;;;;;;;8.20;99.90;;;;;;5007584;28;19964;-89
2023/04/17 04:12:05;;;;;;;;;;;8.30;99.90;;;;;;5003023;28;19925;-91
2023/04/17 04:14:38;;;;;;;;;;;8.20;99.90;;;;;;5004668;28;20016;-89
2023/04/17 04:17:06;;;;;;;;;;;8.20;99.90;;;;;;5009522;28;20442;-89
2023/04/17 04:19:34;;;;;;;;;;;8.20;99.90;;;;;;5012763;28;19932;-90
2023/04/17 04:22:01;;;;;;;;;;;8.20;99.90;;;;;;5011866;28;19930;-88
2023/04/17 04:24:37;;;;;;;;;;;8.20;99.90;;;;;;5007192;28;19940;-90
2023/04/17 04:27:04;;;;;;;;;;;8.20;99.90;;;;;;5007108;28;19929;-90
2023/04/17 04:29:33;;;;;;;;;;;8.20;99.90;;;;;;5009754;28;20386;-89
2023/04/17 04:32:04;;;;;;;;;;;8.20;99.90;;;;;;5011263;28;19925;-89
2023/04/17 04:34:40;;;;;;;;;;;8.20;99.90;;;;;;5018398;28;20416;-89
2023/04/17 04:37:08;;;;;;;;;;;8.20;99.90;;;;;;5022063;28;19991;-88
2023/04/17 04:39:39;;;;;;;;;;;8.20;99.90;;;;;;5009467;28;19953;-90
2023/04/17 04:42:09;;;;;;;;;;;8.20;99.90;;;;;;5007434;28;19925;-91
2023/04/17 04:44:48;;;;;;;;;;;8.20;99.90;;;;;;5000414;28;19936;-90
2023/04/17 04:47:18;;;;;;;;;;;8.20;99.90;;;;;;5009472;28;20335;-90
2023/04/17 04:49:48;;;;;;;;;;;8.20;99.90;;;;;;5010590;28;19933;-89
2023/04/17 04:52:18;;;;;;;;;;;8.20;99.90;;;;;;5002484;28;20388;-90
2023/04/17 04:54:45;;;;;;;;;;;8.20;99.90;;;;;;5013110;28;19960;-89
2023/04/17 04:57:13;;;;;;;;;;;8.20;99.90;;;;;;5008711;28;20310;-89
2023/04/17 04:59:42;;;;;;;;;;;8.20;99.90;;;;;;5004829;28;19925;-90
2023/04/17 05:02:32;;;;;;;;;;;8.20;99.90;;;;;;4998967;28;19930;-88
2023/04/17 05:05:00;;;;;;;;;;;8.10;99.90;;;;;;5006876;28;19932;-88
2023/04/17 05:07:30;;;;;;;;;;;8.10;99.90;;;;;;5011274;28;19926;-91
2023/04/17 05:09:57;;;;;;;;;;;8.10;99.90;;;;;;5007703;28;19933;-92
2023/04/17 05:12:24;;;;;;;;;;;8.10;99.90;;;;;;5007848;28;19933;-91
2023/04/17 05:14:51;;;;;;;;;;;8.10;99.90;;;;;;5008547;28;20032;-91
2023/04/17 05:17:19;;;;;;;;;;;8.10;99.90;;;;;;5005825;28;20388;-91
2023/04/17 05:19:46;;;;;;;;;;;8.10;99.90;;;;;;5003910;28;19988;-90
2023/04/17 05:22:15;;;;;;;;;;;8.10;99.90;;;;;;5010719;28;19933;-91
2023/04/17 05:24:58;;;;;;;;;;;8.10;99.90;;;;;;5002305;28;19988;-89
2023/04/17 05:27:26;;;;;;;;;;;8.10;99.90;;;;;;5001938;28;19925;-88
2023/04/17 05:29:53;;;;;;;;;;;8.10;99.90;;;;;;5009837;28;19934;-91
2023/04/17 05:32:21;;;;;;;;;;;8.10;99.90;;;;;;5003693;28;19972;-92
2023/04/17 05:34:53;;;;;;;;;;;8.10;99.90;;;;;;4998665;28;20366;-91
2023/04/17 05:37:25;;;;;;;;;;;8.10;99.90;;;;;;5008780;28;19972;-91
2023/04/17 05:39:52;;;;;;;;;;;8.10;99.90;;;;;;5010166;28;20414;-79
2023/04/17 05:42:19;;;;;;;;;;;8.10;99.90;;;;;;5001437;28;19956;-92
2023/04/17 05:44:46;;;;;;;;;;;8.10;99.90;;;;;;5010340;28;19968;-93
2023/04/17 05:47:13;;;;;;;;;;;8.10;99.90;;;;;;5034669;28;19937;-93
2023/04/17 05:49:41;;;;;;;;;;;8.10;99.90;;;;;;5040563;28;19921;-91
2023/04/17 05:52:09;;;;;;;;;;;8.10;99.90;;;;;;5008483;28;20049;-90
2023/04/17 05:54:41;;;;;;;;;;;8.10;99.90;;;;;;5005692;28;19926;-93
2023/04/17 05:57:09;;;;;;;;;;;8.10;99.90;;;;;;5010217;28;19926;-91
2023/04/17 05:59:36;;;;;;;;;;;8.20;99.90;;;;;;5006187;28;19940;-90
2023/04/17 06:02:03;;;;;;;;;;;8.10;99.90;;;;;;5009440;28;20075;-91
2023/04/17 06:04:33;;;;;;;;;;;8.20;99.90;;;;;;5020174;28;20016;-89
2023/04/17 06:07:01;;;;;;;;;;;8.20;99.90;;;;;;5002295;28;20023;-89
2023/04/17 06:09:28;;;;;;;;;;;8.10;99.90;;;;;;5010714;28;20435;-92
2023/04/17 06:11:56;;;;;;;;;;;8.10;99.90;;;;;;5016294;28;19932;-92
2023/04/17 06:14:23;;;;;;;;;;;8.20;99.90;;;;;;5026357;28;19936;-91
2023/04/17 06:16:50;;;;;;;;;;;8.10;99.90;;;;;;5007216;28;20097;-90
2023/04/17 06:19:17;;;;;;;;;;;8.10;99.90;;;;;;5010689;28;19929;-91
2023/04/17 06:21:45;;;;;;;;;;;8.10;99.90;;;;;;5008180;28;19992;-91
2023/04/17 06:24:12;;;;;;;;;;;8.10;99.90;;;;;;5009528;28;19929;-91
2023/04/17 06:26:45;;;;;;;;;;;8.10;99.90;;;;;;5009129;28;19933;-91
2023/04/17 06:29:14;;;;;;;;;;;8.10;99.90;;;;;;5009164;28;19925;-91
2023/04/17 06:31:41;;;;;;;;;;;8.20;99.90;;;;;;5015258;28;20058;-91
2023/04/17 06:34:08;;;;;;;;;;;8.20;99.90;;;;;;5008564;28;19925;-91
2023/04/17 06:36:40;;;;;;;;;;;8.10;99.90;;;;;;5011425;28;19956;-91
2023/04/17 06:39:07;;;;;;;;;;;8.10;99.90;;;;;;5009707;28;19933;-92
2023/04/17 06:41:34;;;;;;;;;;;8.10;99.90;;;;;;5002894;28;19980;-92
2023/04/17 06:44:01;;;;;;;;;;;8.10;99.90;;;;;;5028608;28;20382;-92
2023/04/17 06:46:46;;;;;;;;;;;8.10;99.90;;;;;;5010862;28;19952;-92
2023/04/17 06:49:13;;;;;;;;;;;8.10;99.90;;;;;;5009704;28;20164;-91
2023/04/17 06:51:44;;;;;;;;;;;8.10;99.90;;;;;;5008370;28;19926;-92
2023/04/17 06:54:11;;;;;;;;;;;8.10;99.90;;;;;;5014035;28;19987;-91
2023/04/17 06:56:38;;;;;;;;;;;8.10;99.90;;;;;;5010858;28;20024;-92
2023/04/17 06:59:05;;;;;;;;;;;8.10;99.90;;;;;;5028015;28;19949;-94
2023/04/17 07:01:33;;;;;;;;;;;8.20;99.90;;;;;;5007652;28;20205;-91
2023/04/17 07:04:02;;;;;;;;;;;8.10;99.90;;;;;;5012818;28;20335;-92
2023/04/17 07:06:29;;;;;;;;;;;8.20;99.90;;;;;;5015587;28;20688;-91
2023/04/17 07:08:55;;;;;;;;;;;8.10;99.90;;;;;;5004986;28;20209;-91
2023/04/17 07:11:22;;;;;;;;;;;8.10;99.90;;;;;;5012720;28;20404;-92
2023/04/17 07:13:49;;;;;;;;;;;8.20;99.90;;;;;;5008683;28;19929;-90
2023/04/17 07:16:16;;;;;;;;;;;8.20;99.90;;;;;;5008203;28;20017;-92
2023/04/17 07:18:43;;;;;;;;;;;8.10;99.90;;;;;;5011198;28;20404;-91
2023/04/17 07:21:11;;;;;;;;;;;8.10;99.90;;;;;;5015096;28;19965;-89
2023/04/17 07:23:38;;;;;;;;;;;8.10;99.90;;;;;;5010370;28;19975;-89
2023/04/17 07:26:04;;;;;;;;;;;8.20;99.90;;;;;;5010585;28;20628;-92
2023/04/17 07:28:31;;;;;;;;;;;8.20;99.90;;;;;;5008146;28;19933;-90
2023/04/17 07:30:58;;;;;;;;;;;8.20;99.90;;;;;;5008352;28;19973;-91
2023/04/17 07:33:25;;;;;;;;;;;8.20;99.90;;;;;;5014545;28;19937;-91
2023/04/17 07:35:52;;;;;;;;;;;8.20;99.90;;;;;;5020926;28;19932;-90
2023/04/17 07:38:21;;;;;;;;;;;8.20;99.90;;;;;;5005147;28;19948;-91
2023/04/17 07:40:47;;;;;;;;;;;8.20;99.90;;;;;;5008172;28;19925;-90
2023/04/17 07:43:15;;;;;;;;;;;8.20;99.90;;;;;;5012320;28;19930;-90
2023/04/17 07:45:42;;;;;;;;;;;8.20;99.90;;;;;;5005406;28;19933;-90
2023/04/17 07:48:09;;;;;;;;;;;8.20;99.90;;;;;;5005566;28;20111;-90
2023/04/17 07:50:36;;;;;;;;;;;8.20;99.90;;;;;;5007331;28;20300;-91
2023/04/17 07:53:02;;;;;;;;;;;8.20;99.90;;;;;;5019255;28;19975;-90
2023/04/17 07:55:31;;;;;;;;;;;8.20;99.90;;;;;;5011271;28;20012;-91
2023/04/17 07:58:00;;;;;;;;;;;8.20;99.90;;;;;;5007896;28;19933;-89
2023/04/17 08:00:27;;;;;;;;;;;8.20;99.90;;;;;;5010357;28;19932;-89
2023/04/17 08:02:54;;;;;;;;;;;8.20;99.90;;;;;;5009213;28;19972;-90
2023/04/17 08:05:22;;;;;;;;;;;8.20;99.90;;;;;;5011139;28;19932;-87
2023/04/17 08:07:49;;;;;;;;;;;8.20;99.90;;;;;;5006959;28;19926;-88
2023/04/17 08:10:16;;;;;;;;;;;8.20;99.90;;;;;;5014607;28;19937;-88
2023/04/17 08:12:44;;;;;;;;;;;8.20;99.90;;;;;;5017718;28;19926;-87
2023/04/17 08:15:11;;;;;;;;;;;8.20;99.90;;;;;;5005838;28;19932;-88
2023/04/17 08:17:38;;;;;;;;;;;8.30;99.90;;;;;;5017817;28;20368;-88
2023/04/17 08:20:10;;;;;;;;;;;8.30;99.90;;;;;;5010274;28;19988;-87
2023/04/17 08:22:41;;;;;;;;;;;8.20;99.90;;;;;;5006703;28;19975;-91
2023/04/17 08:25:09;;;;;;;;;;;8.20;99.90;;;;;;5007556;28;19956;-92
2023/04/17 08:27:36;;;;;;;;;;;8.30;99.90;;;;;;5004165;28;19940;-91
2023/04/17 08:30:05;;;;;;;;;;;8.30;99.90;;;;;;5004441;28;19932;-91
2023/04/17 08:32:37;;;;;;;;;;;8.30;99.90;;;;;;5025457;28;20440;-92
2023/04/17 08:35:04;;;;;;;;;;;8.30;99.90;;;;;;5008869;28;19987;-90
2023/04/17 08:37:31;;;;;;;;;;;8.30;99.90;;;;;;5006388;28;20146;-91
2023/04/17 08:39:58;;;;;;;;;;;8.30;99.90;;;;;;5005743;28;19929;-90
2023/04/17 08:42:25;;;;;;;;;;;8.30;99.90;;;;;;5007269;28;19933;-92
2023/04/17 08:44:53;;;;;;;;;;;8.30;99.90;;;;;;5015678;28;19975;-90
2023/04/17 08:47:21;;;;;;;;;;;8.30;99.90;;;;;;5011100;28;19933;-90
2023/04/17 08:49:49;;;;;;;;;;;8.30;99.90;;;;;;5001503;28;19949;-91
2023/04/17 08:52:16;;;;;;;;;;;8.30;99.90;;;;;;5008546;28;19980;-92
2023/04/17 08:54:43;;;;;;;;;;;8.30;99.90;;;;;;5009692;28;19925;-91
2023/04/17 08:57:09;;;;;;;;;;;8.30;99.90;;;;;;5021110;28;20032;-90
2023/04/17 08:59:36;;;;;;;;;;;8.30;99.90;;;;;;5010796;28;20009;-92
2023/04/17 09:02:04;;;;;;;;;;;8.40;99.90;;;;;;5015716;28;19925;-92
2023/04/17 09:04:36;;;;;;;;;;;8.30;99.90;;;;;;5011343;28;20516;-94
2023/04/17 09:07:04;;;;;;;;;;;8.40;99.90;;;;;;5026396;28;19964;-91
2023/04/17 09:09:47;;;;;;;;;;;8.40;99.90;;;;;;5016066;28;19925;-90
2023/04/17 09:12:14;;;;;;;;;;;8.40;99.90;;;;;;5006101;28;20350;-90
2023/04/17 09:14:41;;;;;;;;;;;8.40;99.90;;;;;;5008265;28;19961;-91
2023/04/17 09:17:08;;;;;;;;;;;8.40;99.90;;;;;;5009809;28;19972;-91
2023/04/17 09:19:36;;;;;;;;;;;8.40;99.90;;;;;;5017494;28;19929;-90
2023/04/17 09:22:19;;;;;;;;;;;8.40;99.90;;;;;;5024338;28;19925;-91
2023/04/17 09:24:46;;;;;;;;;;;8.50;99.90;;;;;;5028029;28;19925;-93
2023/04/17 09:27:20;;;;;;;;;;;8.50;99.90;;;;;;5042185;28;19932;-95
2023/04/17 09:29:57;;;;;;;;;;;8.50;99.90;;;;;;5024066;28;20446;-91
2023/04/17 09:32:25;;;;;;;;;;;8.50;99.90;;;;;;5011311;28;19930;-91
2023/04/17 09:34:53;;;;;;;;;;;8.50;99.90;;;;;;5014827;28;20469;-90
2023/04/17 09:37:20;;;;;;;;;;;8.50;99.90;;;;;;5014465;28;19932;-91
2023/04/17 09:39:57;;;;;;;;;;;8.50;99.90;;;;;;5016333;28;19930;-90
2023/04/17 09:42:24;;;;;;;;;;;8.50;99.90;;;;;;5014293;28;19976;-89
2023/04/17 09:44:51;;;;;;;;;;;8.50;99.90;;;;;;5012931;28;20332;-91
2023/04/17 09:47:18;;;;;;;;;;;8.60;99.90;;;;;;5014492;28;19925;-92
2023/04/17 09:49:48;;;;;;;;;;;8.60;99.90;;;;;;5012220;28;19930;-90
2023/04/17 09:52:17;;;;;;;;;;;8.60;99.90;;;;;;5011628;28;19965;-91
2023/04/17 09:54:45;;;;;;;;;;;8.60;99.90;;;;;;5009522;28;19925;-90
2023/04/17 09:57:12;;;;;;;;;;;8.60;99.90;;;;;;5016654;28;19925;-92
2023/04/17 09:59:39;;;;;;;;;;;8.60;99.90;;;;;;5027140;28;19968;-90
2023/04/17 10:02:08;;;;;;;;;;;8.70;99.90;;;;;;5007138;28;20031;-90
2023/04/17 10:04:35;;;;;;;;;;;8.70;99.90;;;;;;5021786;28;19944;-89
2023/04/17 10:07:03;;;;;;;;;;;8.70;99.90;;;;;;5016787;28;19932;-92
2023/04/17 10:09:31;;;;;;;;;;;8.70;99.90;;;;;;5010170;28;19926;-90
2023/04/17 10:11:59;;;;;;;;;;;8.80;99.90;;;;;;5015337;28;19933;-90
2023/04/17 10:14:29;;;;;;;;;;;8.80;99.90;;;;;;5006932;28;20331;-91
2023/04/17 10:16:56;;;;;;;;;;;8.80;99.90;;;;;;5014999;28;19998;-91
2023/04/17 10:19:23;;;;;;;;;;;8.80;99.90;;;;;;5009291;28;19925;-92
2023/04/17 10:22:05;;;;;;;;;;;8.90;99.90;;;;;;5011453;28;19925;-91
2023/04/17 10:24:33;;;;;;;;;;;8.90;99.90;;;;;;5015402;28;19979;-90
2023/04/17 10:27:03;;;;;;;;;;;8.90;99.90;;;;;;5008531;28;19925;-91
2023/04/17 10:29:45;;;;;;;;;;;9.00;99.90;;;;;;5015225;28;19926;-91
2023/04/17 10:32:17;;;;;;;;;;;9.00;99.90;;;;;;5015703;28;19932;-91
2023/04/17 10:34:45;;;;;;;;;;;9.00;99.90;;;;;;5006910;28;19932;-91
2023/04/17 10:37:14;;;;;;;;;;;9.10;99.90;;;;;;5010353;28;19933;-89
2023/04/17 10:39:53;;;;;;;;;;;9.10;99.90;;;;;;5011940;28;19941;-91
2023/04/17 10:42:20;;;;;;;;;;;9.10;99.90;;;;;;5018189;28;19979;-90
2023/04/17 10:44:47;;;;;;;;;;;9.10;99.90;;;;;;5009525;28;19980;-91
2023/04/17 10:47:14;;;;;;;;;;;9.10;99.90;;;;;;5010267;28;19926;-92
2023/04/17 10:49:51;;;;;;;;;;;9.10;99.90;;;;;;5013911;28;20311;-91
2023/04/17 10:52:39;;;;;;;;;;;9.10;99.90;;;;;;5010469;28;20054;-91
2023/04/17 10:55:07;;;;;;;;;;;9.10;99.90;;;;;;5010202;28;19925;-91
2023/04/17 10:57:53;;;;;;;;;;;9.10;99.90;;;;;;5012132;28;19980;-90
2023/04/17 11:00:20;;;;;;;;;;;9.10;99.90;;;;;;5012550;28;19940;-90
2023/04/17 11:02:49;;;;;;;;;;;9.20;99.90;;;;;;5006572;28;21433;-90
2023/04/17 11:05:16;;;;;;;;;;;9.20;99.90;;;;;;5005526;28;20102;-91
2023/04/17 11:07:49;;;;;;;;;;;9.20;99.90;;;;;;5015333;28;19971;-90
2023/04/17 11:10:17;;;;;;;;;;;9.20;99.90;;;;;;5012580;28;20011;-92
2023/04/17 11:12:45;;;;;;;;;;;9.20;99.90;;;;;;5012897;28;20277;-90
2023/04/17 11:15:12;;;;;;;;;;;9.20;99.90;;;;;;5013913;28;20077;-90
2023/04/17 11:17:40;;;;;;;;;;;9.30;99.90;;;;;;5011121;28;19941;-89
2023/04/17 11:20:07;;;;;;;;;;;9.30;99.90;;;;;;5010438;28;19929;-91
2023/04/17 11:22:34;;;;;;;;;;;9.30;99.90;;;;;;5020465;28;20247;-91
2023/04/17 11:25:01;;;;;;;;;;;9.30;99.90;;;;;;5013732;28;19984;-91
2023/04/17 11:27:29;;;;;;;;;;;9.30;99.90;;;;;;5007342;28;19926;-91
2023/04/17 11:29:56;;;;;;;;;;;9.30;99.90;;;;;;5010376;28;20020;-91
2023/04/17 11:32:25;;;;;;;;;;;9.40;99.90;;;;;;5012274;28;22317;-92
2023/04/17 11:34:53;;;;;;;;;;;9.40;99.90;;;;;;5015173;28;19955;-90
2023/04/17 11:37:20;;;;;;;;;;;9.40;99.90;;;;;;5005324;28;19964;-90
2023/04/17 11:39:47;;;;;;;;;;;9.40;99.90;;;;;;5010684;28;19929;-90
2023/04/17 11:42:14;;;;;;;;;;;9.50;99.90;;;;;;5006497;28;20360;-91
2023/04/17 11:44:44;;;;;;;;;;;9.50;99.90;;;;;;5007075;28;19984;-91
2023/04/17 11:47:11;;;;;;;;;;;9.50;99.90;;;;;;5013619;28;19979;-91
2023/04/17 11:49:38;;;;;;;;;;;9.60;99.90;;;;;;5010719;28;20268;-91
2023/04/17 11:52:05;;;;;;;;;;;9.60;99.90;;;;;;5009040;28;19936;-92
2023/04/17 11:54:35;;;;;;;;;;;9.70;99.90;;;;;;5009910;28;19929;-90
2023/04/17 11:57:03;;;;;;;;;;;9.60;99.90;;;;;;5006903;28;20648;-91
2023/04/17 11:59:30;;;;;;;;;;;9.70;99.90;;;;;;5013508;28;19976;-91
2023/04/17 12:02:00;;;;;;;;;;;9.70;99.90;;;;;;5003704;28;19949;-90
2023/04/17 12:04:28;;;;;;;;;;;9.70;99.90;;;;;;5010326;28;20012;-90
2023/04/17 12:06:55;;;;;;;;;;;9.70;99.90;;;;;;5007709;28;19937;-91
2023/04/17 12:09:23;;;;;;;;;;;9.70;99.90;;;;;;5009347;28;19925;-91
2023/04/17 12:11:52;;;;;;;;;;;9.80;99.90;;;;;;5014650;28;19987;-90
2023/04/17 12:14:19;;;;;;;;;;;9.80;99.90;;;;;;5015824;28;19965;-90
2023/04/17 12:16:48;;;;;;;;;;;9.80;99.90;;;;;;5026619;28;19940;-93
2023/04/17 12:19:18;;;;;;;;;;;9.90;99.90;;;;;;5004653;28;19929;-91
2023/04/17 12:21:46;;;;;;;;;;;9.90;99.90;;;;;;5008569;28;19941;-90
2023/04/17 12:24:13;;;;;;;;;;;9.90;99.90;;;;;;5027825;28;19926;-91
2023/04/17 12:26:45;;;;;;;;;;;9.90;99.90;;;;;;5007633;28;20023;-90
2023/04/17 12:29:12;;;;;;;;;;;10.00;99.90;;;;;;5009089;28;19925;-89
2023/04/17 12:31:38;;;;;;;;;;;10.00;99.90;;;;;;5032006;28;19924;-91
2023/04/17 12:34:08;;;;;;;;;;;10.00;99.90;;;;;;5012231;28;19934;-93
2023/04/17 12:36:37;;;;;;;;;;;10.00;99.90;;;;;;5025164;28;21195;-90
2023/04/17 12:39:04;;;;;;;;;;;10.00;99.90;;;;;;5007279;28;19932;-90
2023/04/17 12:41:30;;;;;;;;;;;10.10;99.90;;;;;;5006889;28;19926;-93
2023/04/17 12:44:00;;;;;;;;;;;10.00;99.90;;;;;;5002558;28;19933;-90
2023/04/17 12:46:27;;;;;;;;;;;10.00;99.90;;;;;;5004604;28;19932;-91
2023/04/17 12:48:57;;;;;;;;;;;10.10;99.90;;;;;;5011505;28;19929;-90
2023/04/17 12:51:26;;;;;;;;;;;10.10;99.90;;;;;;5018901;28;19967;-90
2023/04/17 12:53:55;;;;;;;;;;;10.10;99.90;;;;;;5016335;28;20033;-91
2023/04/17 12:56:22;;;;;;;;;;;10.10;99.90;;;;;;5014260;28;19925;-91
2023/04/17 12:58:48;;;;;;;;;;;10.10;99.90;;;;;;5018575;28;19925;-90
2023/04/17 13:01:15;;;;;;;;;;;10.10;99.90;;;;;;5014016;28;19971;-91
2023/04/17 13:03:42;;;;;;;;;;;10.10;99.90;;;;;;5038497;28;19909;-91
2023/04/17 13:06:09;;;;;;;;;;;10.10;99.90;;;;;;5039622;28;20169;-91
2023/04/17 13:08:36;;;;;;;;;;;10.10;99.90;;;;;;5009765;28;19934;-90
2023/04/17 13:11:04;;;;;;;;;;;10.10;99.90;;;;;;5018466;28;20012;-90
2023/04/17 13:13:31;;;;;;;;;;;10.10;99.90;;;;;;5016947;28;20404;-89
2023/04/17 13:15:58;;;;;;;;;;;10.10;99.90;;;;;;5017588;28;19971;-91
2023/04/17 13:18:25;;;;;;;;;;;10.10;99.90;;;;;;5015906;28;19979;-90
2023/04/17 13:20:52;;;;;;;;;;;10.10;99.90;;;;;;5015129;28;19925;-90
2023/04/17 13:23:18;;;;;;;;;;;10.10;99.90;;;;;;5012719;28;19976;-91
2023/04/17 13:25:45;;;;;;;;;;;10.10;99.90;;;;;;5011768;28;20385;-91
2023/04/17 13:28:13;;;;;;;;;;;10.10;99.90;;;;;;5008812;28;20004;-92
2023/04/17 13:30:40;;;;;;;;;;;10.10;99.90;;;;;;5022585;28;20303;-90
2023/04/17 13:33:07;;;;;;;;;;;10.10;99.90;;;;;;5015243;28;19932;-90
2023/04/17 13:35:34;;;;;;;;;;;10.10;99.90;;;;;;5015990;28;20392;-92
2023/04/17 13:38:01;;;;;;;;;;;10.10;99.90;;;;;;5011237;28;19925;-89
2023/04/17 13:40:28;;;;;;;;;;;10.10;99.90;;;;;;5007546;28;19933;-90
2023/04/17 13:42:55;;;;;;;;;;;10.20;99.90;;;;;;5024979;28;19948;-90
2023/04/17 13:45:23;;;;;;;;;;;10.20;99.90;;;;;;5010529;28;20081;-90
2023/04/17 13:47:51;;;;;;;;;;;10.20;99.90;;;;;;5017952;28;20515;-90
2023/04/17 13:50:18;;;;;;;;;;;10.20;99.90;;;;;;5014416;28;19929;-90
2023/04/17 13:52:44;;;;;;;;;;;10.20;99.90;;;;;;5022606;28;20455;-90
2023/04/17 13:55:13;;;;;;;;;;;10.20;99.90;;;;;;5015054;28;19929;-90
2023/04/17 13:57:43;;;;;;;;;;;10.20;99.90;;;;;;5016839;28;20284;-91
2023/04/17 14:00:10;;;;;;;;;;;10.20;99.90;;;;;;5015910;28;19937;-90
2023/04/17 14:02:38;;;;;;;;;;;10.20;99.90;;;;;;5019422;28;19968;-91
2023/04/17 14:05:06;;;;;;;;;;;10.20;99.90;;;;;;5018377;28;20281;-90
2023/04/17 14:07:33;;;;;;;;;;;10.20;99.90;;;;;;5026094;28;19936;-90
2023/04/17 14:09:59;;;;;;;;;;;10.30;99.90;;;;;;5014405;28;19929;-91
2023/04/17 14:12:26;;;;;;;;;;;10.30;99.90;;;;;;5022347;28;20020;-90
2023/04/17 14:14:53;;;;;;;;;;;10.30;99.90;;;;;;5020291;28;19925;-91
2023/04/17 14:17:20;;;;;;;;;;;10.30;99.90;;;;;;5032480;28;19929;-90
2023/04/17 14:19:48;;;;;;;;;;;10.30;99.90;;;;;;5016337;28;19987;-90
2023/04/17 14:22:15;;;;;;;;;;;10.30;99.90;;;;;;5015228;28;20023;-90
2023/04/17 14:24:42;;;;;;;;;;;10.40;99.90;;;;;;5016907;28;19936;-91
2023/04/17 14:27:09;;;;;;;;;;;10.40;99.90;;;;;;5008000;28;19933;-90
2023/04/17 14:29:35;;;;;;;;;;;10.40;99.90;;;;;;5007270;28;19940;-91
2023/04/17 14:32:02;;;;;;;;;;;10.40;99.90;;;;;;5017110;28;19941;-89
2023/04/17 14:34:29;;;;;;;;;;;10.40;99.90;;;;;;5012373;28;20173;-91